Terminal Aerodrome Forecast
Issued by NWS Omaha/Valley, NE

Home | Current Version | Previous Version | Text Only | Print | Product List | Glossary On
Versions: 1 2 3 4 5 6 7 8 9 10 11 12 13 14 15 16 17 18 19 20
000
FTUS43 KOAX 222320
TAFLNK
TAF
KLNK 222320Z 2300/2324 20008KT P6SM SKC
     FM230700 19005KT P6SM SCT250 WS020/23035KT
     FM231100 32015KT P6SM SCT130 WS020/34045KT
     FM231400 32015G23KT P6SM BKN130 WS020/33045KT
     FM231700 32030G39KT P6SM SCT130=

USA.gov is the U.S. government's official web portal to all federal, state and local government web resources and services.